Weather at Pointe-au-Chêne Water Aerodrome [CLOSED]

Public forecast

Using degrees Celsius for public forecast. Weather courtesy of forecast.io.

Closest aviation weather report (METAR) to Pointe-au-Chêne Water Aerodrome

Closest report is Montreal International (Mirabel) Airport, 29.9 nm (55.5 km) E.

2024/05/19 23:00 (retrieved 21 minutes ago)

CYMX 192300Z 16003KT 130V200 45SM FEW055 24/13 A2992 RMK CU1 CU TR SLP134 DENSITY ALT 1500FT

Closest aviation forecast (TAF) to Pointe-au-Chêne Water Aerodrome

Closest forecast is Montreal International (Mirabel) Airport, 29.9 nm (55.5 km) E.

2024/05/19 18:42 (retrieved 5 hours ago)

TAF CYMX 191740Z 1918/2018 12005KT P6SM FEW040 BECMG 1922/1924 VRB03KT BECMG 2013/2015 22005KT RMK NXT FCST BY 200000Z